Time;durP1;ratioP1;P1;durP2;ratioP2;P2;SDS_P1;SDS_P2;PMS_P1;PMS_P2;Temp;Humidity;BMP_temperature;BMP_pressure;BME280_temperature;BME280_humidity;BME280_pressure;Samples;Min_cycle;Max_cycle;Signal;HPM_P1;HPM_P2
2023/02/18 00:02:18;;;;;;;1.77;0.98;;;12.60;99.90;;;;;;5072193;28;20517;-76
2023/02/18 00:04:43;;;;;;;2.03;0.93;;;12.60;99.90;;;;;;5072199;28;20024;-75
2023/02/18 00:07:09;;;;;;;1.50;0.93;;;12.60;99.90;;;;;;5071546;28;20020;-75
2023/02/18 00:09:34;;;;;;;0.90;0.70;;;12.60;99.90;;;;;;5072443;28;20067;-75
2023/02/18 00:12:00;;;;;;;1.33;0.85;;;12.60;99.90;;;;;;5073502;28;20461;-75
2023/02/18 00:14:26;;;;;;;1.45;1.00;;;12.50;99.90;;;;;;5071779;28;20028;-75
2023/02/18 00:16:51;;;;;;;3.10;0.95;;;12.50;99.90;;;;;;5072192;28;20119;-75
2023/02/18 00:19:19;;;;;;;1.35;0.90;;;12.50;99.90;;;;;;5071395;28;20032;-76
2023/02/18 00:21:45;;;;;;;1.45;0.90;;;12.60;99.90;;;;;;5071798;28;20469;-74
2023/02/18 00:24:14;;;;;;;1.35;0.90;;;12.60;99.90;;;;;;5072237;28;20073;-75
2023/02/18 00:26:40;;;;;;;1.17;1.00;;;12.60;99.90;;;;;;5072623;28;20474;-76
2023/02/18 00:29:06;;;;;;;1.25;0.93;;;12.50;99.90;;;;;;5072796;28;20040;-81
2023/02/18 00:31:35;;;;;;;2.22;1.00;;;12.60;99.90;;;;;;5071260;28;20027;-76
2023/02/18 00:34:02;;;;;;;1.60;1.05;;;12.50;99.90;;;;;;5073144;28;20025;-76
2023/02/18 00:36:29;;;;;;;1.20;0.88;;;12.50;99.90;;;;;;5070512;28;20048;-75
2023/02/18 00:38:57;;;;;;;2.15;1.02;;;12.50;99.90;;;;;;5072605;28;20048;-76
2023/02/18 00:41:24;;;;;;;1.15;1.05;;;12.50;99.90;;;;;;5070701;28;20028;-76
2023/02/18 00:43:50;;;;;;;2.38;1.25;;;12.50;99.90;;;;;;5072796;28;20039;-75
2023/02/18 00:46:15;;;;;;;1.42;1.00;;;12.50;99.90;;;;;;5058824;28;20121;-76
2023/02/18 00:48:41;;;;;;;1.70;1.20;;;12.50;99.90;;;;;;5052441;28;20035;-75
2023/02/18 00:51:08;;;;;;;2.15;1.30;;;12.50;99.90;;;;;;5052286;28;20021;-79
2023/02/18 00:53:35;;;;;;;2.75;1.17;;;12.50;99.90;;;;;;5052878;28;20091;-77
2023/02/18 00:56:01;;;;;;;1.67;1.10;;;12.50;99.90;;;;;;5051785;28;20025;-76
2023/02/18 00:58:27;;;;;;;1.70;1.05;;;12.50;99.90;;;;;;5050593;28;20503;-76
2023/02/18 01:00:53;;;;;;;1.83;1.15;;;12.50;99.90;;;;;;5052905;28;20032;-77
2023/02/18 01:03:21;;;;;;;2.08;1.30;;;12.50;99.90;;;;;;5052180;28;20029;-74
2023/02/18 01:05:48;;;;;;;2.45;1.00;;;12.50;99.90;;;;;;5051272;28;20417;-74
2023/02/18 01:08:15;;;;;;;2.22;1.02;;;12.50;99.90;;;;;;5051618;28;20028;-75
2023/02/18 01:10:43;;;;;;;2.33;1.20;;;12.50;99.90;;;;;;5052237;28;20025;-75
2023/02/18 01:13:10;;;;;;;2.20;1.33;;;12.50;99.90;;;;;;5071799;28;20485;-77
2023/02/18 01:15:37;;;;;;;1.80;1.38;;;12.40;99.90;;;;;;5072462;28;20059;-76
2023/02/18 01:18:03;;;;;;;2.25;1.30;;;12.40;99.90;;;;;;5071611;28;20033;-75
2023/02/18 01:20:28;;;;;;;2.88;1.50;;;12.50;99.90;;;;;;5070723;28;20143;-76
2023/02/18 01:22:54;;;;;;;1.67;1.40;;;12.40;99.90;;;;;;5071583;28;20033;-76
2023/02/18 01:25:20;;;;;;;1.40;1.20;;;12.50;99.90;;;;;;5071927;28;20422;-76
2023/02/18 01:27:45;;;;;;;3.45;1.60;;;12.40;99.90;;;;;;5071064;28;20033;-76
2023/02/18 01:30:14;;;;;;;3.13;1.50;;;12.40;99.90;;;;;;5060231;28;20493;-75
2023/02/18 01:32:40;;;;;;;3.20;1.80;;;12.40;99.90;;;;;;5050428;28;20037;-75
2023/02/18 01:35:06;;;;;;;3.03;1.50;;;12.40;99.90;;;;;;5051787;28;20116;-75
2023/02/18 01:37:32;;;;;;;1.80;1.42;;;12.40;99.90;;;;;;5051467;28;20031;-75
2023/02/18 01:39:59;;;;;;;2.03;1.50;;;12.40;99.90;;;;;;5050974;28;20545;-74
2023/02/18 01:42:27;;;;;;;2.28;1.58;;;12.40;99.90;;;;;;5049208;28;20029;-75
2023/02/18 01:44:53;;;;;;;2.00;1.30;;;12.40;99.90;;;;;;5050642;28;20139;-76
2023/02/18 01:47:19;;;;;;;3.85;1.35;;;12.50;99.90;;;;;;5050421;28;20108;-76
2023/02/18 01:49:51;;;;;;;2.38;1.50;;;12.40;99.90;;;;;;5050792;28;20123;-75
2023/02/18 01:52:19;;;;;;;;;;;12.40;99.90;;;;;;5051804;28;20060;-76
2023/02/18 01:54:50;;;;;;;2.83;1.35;;;12.40;99.90;;;;;;5051733;28;19912;-75
2023/02/18 01:57:23;;;;;;;1.92;1.20;;;12.40;99.90;;;;;;5051903;28;20482;-76
2023/02/18 01:59:52;;;;;;;2.78;1.50;;;12.40;99.90;;;;;;5052176;28;20037;-76
2023/02/18 02:02:23;;;;;;;2.33;1.50;;;12.40;99.90;;;;;;5052155;28;20029;-76
2023/02/18 02:04:49;;;;;;;2.65;1.40;;;12.40;99.90;;;;;;5051172;28;20025;-76
2023/02/18 02:07:16;;;;;;;3.17;1.70;;;12.40;99.90;;;;;;5050763;28;20127;-77
2023/02/18 02:09:42;;;;;;;2.58;1.50;;;12.40;99.90;;;;;;5051026;28;20033;-76
2023/02/18 02:12:38;;;;;;;3.30;1.90;;;12.40;99.90;;;;;;5057370;28;20378;-78
2023/02/18 02:15:22;;;;;;;53.08;27.25;;;12.30;99.90;;;;;;5050660;28;20422;-77
2023/02/18 02:18:12;;;;;;;5.95;3.47;;;12.50;99.90;;;;;;5051989;28;20063;-75
2023/02/18 02:21:09;;;;;;;4.15;2.90;;;12.40;99.90;;;;;;5052078;28;20029;-77
2023/02/18 02:24:05;;;;;;;5.45;2.28;;;12.40;99.90;;;;;;5054842;28;20036;-76
2023/02/18 02:26:39;;;;;;;2.92;2.05;;;12.30;99.90;;;;;;5053492;28;20021;-76
2023/02/18 02:29:42;;;;;;;3.25;2.20;;;12.30;99.90;;;;;;5055326;28;20020;-75
2023/02/18 02:32:11;;;;;;;4.18;2.00;;;12.30;99.90;;;;;;5054291;28;20192;-77
2023/02/18 02:35:04;;;;;;;3.75;1.83;;;12.20;99.90;;;;;;5055537;28;20029;-77
2023/02/18 02:37:51;;;;;;;4.68;2.40;;;12.20;99.90;;;;;;5055253;28;20044;-77
2023/02/18 02:40:30;;;;;;;2.33;1.80;;;12.20;99.90;;;;;;5053870;28;20025;-77
2023/02/18 02:43:10;;;;;;;2.67;1.92;;;12.20;99.90;;;;;;5034554;28;20044;-77
2023/02/18 02:46:01;;;;;;;5.32;2.20;;;12.20;99.90;;;;;;5035074;28;20387;-77
2023/02/18 02:48:55;;;;;;;3.85;2.00;;;12.20;99.90;;;;;;5033307;28;20553;-77
2023/02/18 02:51:29;;;;;;;3.28;2.10;;;12.10;99.90;;;;;;5034340;28;20037;-76
2023/02/18 02:53:54;;;;;;;2.58;2.00;;;12.20;99.90;;;;;;5034294;28;20056;-77
2023/02/18 02:56:22;;;;;;;3.28;2.13;;;12.10;99.90;;;;;;5033655;28;20057;-77
2023/02/18 02:59:01;;;;;;;3.75;2.20;;;12.10;99.90;;;;;;5035417;28;20032;-77
2023/02/18 03:01:49;;;;;;;4.20;2.35;;;12.10;99.90;;;;;;5034533;28;20470;-76
2023/02/18 03:04:25;;;;;;;4.35;2.72;;;12.00;99.90;;;;;;5033134;28;20025;-76
2023/02/18 03:07:09;;;;;;;2.50;1.88;;;12.00;99.90;;;;;;5033476;28;20092;-76
2023/02/18 03:10:04;;;;;;;2.95;2.08;;;12.00;99.90;;;;;;5034574;28;20025;-76
2023/02/18 03:12:59;;;;;;;3.38;2.30;;;12.00;99.90;;;;;;5050599;28;20474;-75
2023/02/18 03:15:59;;;;;;;3.95;2.30;;;12.00;99.90;;;;;;5052626;28;20124;-76
2023/02/18 03:18:30;;;;;;;2.67;1.98;;;12.00;99.90;;;;;;5052391;28;20094;-75
2023/02/18 03:21:05;;;;;;;4.25;2.25;;;12.00;99.90;;;;;;5054075;28;20028;-76
2023/02/18 03:23:56;;;;;;;3.80;2.28;;;11.90;99.90;;;;;;5052003;28;20032;-76
2023/02/18 03:26:23;;;;;;;3.67;2.30;;;11.90;99.90;;;;;;5050751;28;20021;-76
2023/02/18 03:28:51;;;;;;;4.10;2.63;;;11.90;99.90;;;;;;5055068;28;20359;-74
2023/02/18 03:31:25;;;;;;;4.18;2.55;;;11.90;99.90;;;;;;5054298;28;20059;-75
2023/02/18 03:33:55;;;;;;;6.82;2.22;;;11.90;99.90;;;;;;5053468;28;20024;-74
2023/02/18 03:36:23;;;;;;;3.05;2.33;;;11.90;99.90;;;;;;5051991;28;20057;-75
2023/02/18 03:39:00;;;;;;;3.22;2.20;;;12.00;99.90;;;;;;5053189;28;20466;-75
2023/02/18 03:41:25;;;;;;;3.22;2.35;;;11.90;99.90;;;;;;5052428;28;20475;-75
2023/02/18 03:43:59;;;;;;;3.75;2.42;;;11.90;99.90;;;;;;5052774;28;20067;-75
2023/02/18 03:46:27;;;;;;;3.65;2.38;;;11.90;99.90;;;;;;5070336;28;20060;-75
2023/02/18 03:48:53;;;;;;;3.17;2.25;;;11.90;99.90;;;;;;5073988;28;20477;-75
2023/02/18 03:51:19;;;;;;;4.45;2.58;;;11.90;99.90;;;;;;5072471;28;20028;-76
2023/02/18 03:53:45;;;;;;;4.20;2.53;;;11.90;99.90;;;;;;5072643;28;20031;-75
2023/02/18 03:56:11;;;;;;;4.18;2.30;;;11.90;99.90;;;;;;5073839;28;20032;-75
2023/02/18 03:58:37;;;;;;;4.13;2.20;;;11.90;99.90;;;;;;5073719;28;20037;-76
2023/02/18 04:01:04;;;;;;;3.55;2.50;;;11.90;99.90;;;;;;5074011;28;20454;-74
2023/02/18 04:03:30;;;;;;;2.97;2.33;;;11.90;99.90;;;;;;5072151;28;20377;-75
2023/02/18 04:05:55;;;;;;;5.10;2.58;;;11.90;99.90;;;;;;5073598;28;20032;-75
2023/02/18 04:08:21;;;;;;;4.22;2.35;;;11.90;99.90;;;;;;5071947;28;20082;-75
2023/02/18 04:10:47;;;;;;;4.20;2.40;;;11.90;99.90;;;;;;5053050;28;20040;-75
2023/02/18 04:13:12;;;;;;;3.67;2.38;;;11.90;99.90;;;;;;5052149;28;20025;-74
2023/02/18 04:15:38;;;;;;;4.10;2.22;;;11.90;99.90;;;;;;5053021;28;20029;-75
2023/02/18 04:18:03;;;;;;;4.45;2.15;;;11.90;99.90;;;;;;5053363;28;20029;-74
2023/02/18 04:20:30;;;;;;;2.25;2.03;;;11.90;99.90;;;;;;5051787;28;20117;-76
2023/02/18 04:22:55;;;;;;;3.53;1.95;;;11.90;99.90;;;;;;5051882;28;20032;-74
2023/02/18 04:25:21;;;;;;;3.67;2.00;;;11.90;99.90;;;;;;5051818;28;20021;-75
2023/02/18 04:27:47;;;;;;;3.97;2.05;;;11.90;99.90;;;;;;5053279;28;20032;-75
2023/02/18 04:30:13;;;;;;;3.85;2.33;;;11.90;99.90;;;;;;5052236;28;20025;-74
2023/02/18 04:32:38;;;;;;;3.47;2.08;;;11.90;99.90;;;;;;5051700;28;20023;-75
2023/02/18 04:35:04;;;;;;;4.57;2.03;;;11.90;99.90;;;;;;5051961;28;20082;-75
2023/02/18 04:37:30;;;;;;;4.32;2.30;;;11.90;99.90;;;;;;5053080;28;20024;-75
2023/02/18 04:39:55;;;;;;;3.78;2.50;;;11.90;99.90;;;;;;5053095;28;20494;-75
2023/02/18 04:42:21;;;;;;;4.93;2.40;;;11.80;99.90;;;;;;5051866;28;20453;-75
2023/02/18 04:44:47;;;;;;;3.80;2.28;;;11.80;99.90;;;;;;5052170;28;20037;-74
2023/02/18 04:47:13;;;;;;;2.70;1.90;;;11.80;99.90;;;;;;5051757;28;20087;-75
2023/02/18 04:49:38;;;;;;;3.13;2.13;;;11.80;99.90;;;;;;5051405;28;20044;-75
2023/02/18 04:52:04;;;;;;;2.90;1.90;;;11.80;99.90;;;;;;5051740;28;20031;-75
2023/02/18 04:54:30;;;;;;;4.00;2.17;;;11.80;99.90;;;;;;5051406;28;20021;-75
2023/02/18 04:56:55;;;;;;;3.17;2.03;;;11.80;99.90;;;;;;5051663;28;20025;-74
2023/02/18 04:59:21;;;;;;;3.00;2.00;;;11.80;99.90;;;;;;5050748;28;20021;-81
2023/02/18 05:01:46;;;;;;;3.10;2.38;;;11.70;99.90;;;;;;5051512;28;20347;-74
2023/02/18 05:04:12;;;;;;;3.63;1.92;;;11.70;99.90;;;;;;5051599;28;20025;-74
2023/02/18 05:06:41;;;;;;;6.22;2.13;;;11.70;99.90;;;;;;5052019;28;20021;-75
2023/02/18 05:09:08;;;;;;;5.25;2.53;;;11.70;99.90;;;;;;5051549;28;20180;-75
2023/02/18 05:11:33;;;;;;;2.88;1.80;;;11.70;99.90;;;;;;5051002;28;20025;-75
2023/02/18 05:13:59;;;;;;;2.13;1.70;;;11.70;99.90;;;;;;5052816;28;20036;-74
2023/02/18 05:16:24;;;;;;;2.58;1.75;;;11.70;99.90;;;;;;5050835;28;20391;-76
2023/02/18 05:18:50;;;;;;;4.22;1.77;;;11.70;99.90;;;;;;5051475;28;20025;-75
2023/02/18 05:21:16;;;;;;;4.03;1.95;;;11.80;99.90;;;;;;5051362;28;20103;-74
2023/02/18 05:23:41;;;;;;;4.03;1.90;;;11.70;99.90;;;;;;5050919;28;20748;-75
2023/02/18 05:26:07;;;;;;;4.20;1.80;;;11.70;99.90;;;;;;5051411;28;20036;-75
2023/02/18 05:28:33;;;;;;;3.70;2.20;;;11.70;99.90;;;;;;5052034;28;20025;-75
2023/02/18 05:30:58;;;;;;;2.90;1.80;;;11.70;99.90;;;;;;5051346;28;20025;-75
2023/02/18 05:33:24;;;;;;;3.20;1.80;;;11.70;99.90;;;;;;5050783;28;20029;-75
2023/02/18 05:35:50;;;;;;;3.20;1.65;;;11.70;99.90;;;;;;5050909;28;20406;-75
2023/02/18 05:38:15;;;;;;;4.80;1.85;;;11.70;99.90;;;;;;5052452;28;20100;-75
2023/02/18 05:40:41;;;;;;;2.17;1.70;;;11.70;99.90;;;;;;5050456;28;20090;-75
2023/02/18 05:43:06;;;;;;;2.30;1.67;;;11.70;99.90;;;;;;5051978;28;20037;-75
2023/02/18 05:45:32;;;;;;;2.92;1.90;;;11.70;99.90;;;;;;5049991;28;20029;-75
2023/02/18 05:47:58;;;;;;;2.92;1.90;;;11.70;99.90;;;;;;5051054;28;20061;-75
2023/02/18 05:50:23;;;;;;;4.00;1.95;;;11.70;99.90;;;;;;5050525;28;20120;-79
2023/02/18 05:52:49;;;;;;;3.38;1.85;;;11.70;99.90;;;;;;5052303;28;20385;-75
2023/02/18 05:55:15;;;;;;;3.85;1.90;;;11.70;99.90;;;;;;5050890;28;20382;-75
2023/02/18 05:57:40;;;;;;;3.47;1.85;;;11.70;99.90;;;;;;5055233;28;20310;-76
2023/02/18 06:00:09;;;;;;;3.17;2.00;;;11.70;99.90;;;;;;5055735;28;20124;-75
2023/02/18 06:02:34;;;;;;;3.17;1.75;;;11.80;99.90;;;;;;5054010;28;20040;-75
2023/02/18 06:05:00;;;;;;;2.10;1.60;;;11.80;99.90;;;;;;5054793;28;20119;-76
2023/02/18 06:07:26;;;;;;;2.33;1.80;;;11.70;99.90;;;;;;5054025;28;20526;-77
2023/02/18 06:09:52;;;;;;;2.92;1.90;;;11.70;99.90;;;;;;5054537;28;20033;-75
2023/02/18 06:12:18;;;;;;;2.22;1.45;;;11.70;99.90;;;;;;5054484;28;20533;-75
2023/02/18 06:14:44;;;;;;;1.75;1.42;;;11.70;99.90;;;;;;5053880;28;20111;-75
2023/02/18 06:17:11;;;;;;;2.55;1.73;;;11.80;99.90;;;;;;5054374;28;20386;-75
2023/02/18 06:19:37;;;;;;;2.10;1.60;;;11.80;99.90;;;;;;5053641;28;20040;-75
2023/02/18 06:22:03;;;;;;;2.35;1.67;;;11.80;99.90;;;;;;5055792;28;20029;-74
2023/02/18 06:24:29;;;;;;;2.70;1.50;;;11.80;99.90;;;;;;5053926;28;20386;-75
2023/02/18 06:26:55;;;;;;;2.83;1.63;;;11.80;99.90;;;;;;5054373;28;20024;-75
2023/02/18 06:29:20;;;;;;;1.98;1.40;;;11.80;99.90;;;;;;5054214;28;20452;-75
2023/02/18 06:31:46;;;;;;;3.53;1.48;;;11.80;99.90;;;;;;5053591;28;20473;-75
2023/02/18 06:34:12;;;;;;;4.50;1.83;;;11.80;99.90;;;;;;5054272;28;20021;-75
2023/02/18 06:36:37;;;;;;;2.88;1.55;;;11.90;99.90;;;;;;5053011;28;20045;-75
2023/02/18 06:39:05;;;;;;;2.40;1.60;;;11.90;99.90;;;;;;5054250;28;20496;-76
2023/02/18 06:41:30;;;;;;;3.38;1.38;;;11.90;99.90;;;;;;5054741;28;20025;-76
2023/02/18 06:43:56;;;;;;;2.92;1.55;;;11.90;99.90;;;;;;5054216;28;20355;-75
2023/02/18 06:46:22;;;;;;;4.60;1.65;;;11.90;99.90;;;;;;5053848;28;20048;-74
2023/02/18 06:48:47;;;;;;;3.33;1.30;;;11.90;99.90;;;;;;5053536;28;20029;-74
2023/02/18 06:51:14;;;;;;;2.08;1.40;;;11.90;99.90;;;;;;5054290;28;20029;-75
2023/02/18 06:53:41;;;;;;;2.25;1.33;;;12.00;99.90;;;;;;5054823;28;20017;-75
2023/02/18 06:56:07;;;;;;;3.90;1.15;;;12.00;99.90;;;;;;5053990;28;20087;-75
2023/02/18 06:58:32;;;;;;;2.90;1.50;;;12.00;99.90;;;;;;5053520;28;20025;-75
2023/02/18 07:00:58;;;;;;;4.13;1.67;;;12.00;99.90;;;;;;5053831;28;20490;-75
2023/02/18 07:03:24;;;;;;;2.65;1.38;;;12.00;99.90;;;;;;5053773;28;20033;-74
2023/02/18 07:05:49;;;;;;;3.20;1.63;;;12.00;99.90;;;;;;5053155;28;20028;-75
2023/02/18 07:08:15;;;;;;;2.08;1.35;;;12.00;99.90;;;;;;5053811;28;20032;-75
2023/02/18 07:10:41;;;;;;;2.80;1.73;;;12.10;99.90;;;;;;5053194;28;20028;-75
2023/02/18 07:13:06;;;;;;;3.97;2.30;;;12.10;99.90;;;;;;5053713;28;20033;-75
2023/02/18 07:15:32;;;;;;;3.47;1.83;;;12.10;99.90;;;;;;5052752;28;20040;-75
2023/02/18 07:17:58;;;;;;;4.78;2.00;;;12.10;99.90;;;;;;5053361;28;20065;-75
2023/02/18 07:20:25;;;;;;;2.80;1.52;;;12.10;99.90;;;;;;5053326;28;20025;-75
2023/02/18 07:22:50;;;;;;;5.30;1.92;;;12.20;99.90;;;;;;5052732;28;20029;-75
2023/02/18 07:25:16;;;;;;;5.13;2.00;;;12.20;99.90;;;;;;5053398;28;20033;-75
2023/02/18 07:27:41;;;;;;;3.28;1.63;;;12.20;99.90;;;;;;5052678;28;20024;-75
2023/02/18 07:30:08;;;;;;;5.05;1.80;;;12.30;99.90;;;;;;5053231;28;20059;-76
2023/02/18 07:32:34;;;;;;;2.95;1.85;;;12.30;99.90;;;;;;5054400;28;20026;-75
2023/02/18 07:34:59;;;;;;;2.72;1.40;;;12.30;99.90;;;;;;5054140;28;20025;-75
2023/02/18 07:37:25;;;;;;;2.47;1.50;;;12.30;99.90;;;;;;5053245;28;20536;-75
2023/02/18 07:39:50;;;;;;;2.00;1.58;;;12.40;99.90;;;;;;5053360;28;20043;-75
2023/02/18 07:42:16;;;;;;;2.38;1.38;;;12.40;99.90;;;;;;5054276;28;20041;-75
2023/02/18 07:44:42;;;;;;;1.75;1.30;;;12.40;99.90;;;;;;5053587;28;20025;-75
2023/02/18 07:47:12;;;;;;;3.90;1.50;;;12.40;99.90;;;;;;5052739;28;20059;-74
2023/02/18 07:49:38;;;;;;;5.25;1.77;;;12.50;99.90;;;;;;5052411;28;20087;-74
2023/02/18 07:52:04;;;;;;;2.00;1.35;;;12.50;99.90;;;;;;5052793;28;20383;-75
2023/02/18 07:54:30;;;;;;;3.40;1.52;;;12.50;99.90;;;;;;5052387;28;20025;-79
2023/02/18 07:56:55;;;;;;;5.15;1.40;;;12.50;99.90;;;;;;5052511;28;20430;-76
2023/02/18 07:59:21;;;;;;;1.92;1.30;;;12.50;99.90;;;;;;5052657;28;20405;-76
2023/02/18 08:01:47;;;;;;;1.98;1.33;;;12.60;99.90;;;;;;5052086;28;20040;-75
2023/02/18 08:04:14;;;;;;;1.58;1.20;;;12.60;99.90;;;;;;5052714;28;20363;-74
2023/02/18 08:06:45;;;;;;;2.20;1.58;;;12.60;99.90;;;;;;5051996;28;20099;-75
2023/02/18 08:09:11;;;;;;;1.88;1.20;;;12.70;99.90;;;;;;5053011;28;20029;-75
2023/02/18 08:11:38;;;;;;;3.72;1.38;;;12.70;99.90;;;;;;5051906;28;20581;-75
2023/02/18 08:14:04;;;;;;;1.83;1.33;;;12.70;99.90;;;;;;5053983;28;20043;-75
2023/02/18 08:16:29;;;;;;;2.17;1.30;;;12.80;99.90;;;;;;5052070;28;20068;-78
2023/02/18 08:18:56;;;;;;;2.58;1.30;;;12.70;99.90;;;;;;5052369;28;20509;-75
2023/02/18 08:21:23;;;;;;;11.43;3.40;;;12.80;99.90;;;;;;5052197;28;20032;-75
2023/02/18 08:23:49;;;;;;;2.78;1.25;;;12.80;99.90;;;;;;5051489;28;20033;-74
2023/02/18 08:26:15;;;;;;;2.03;1.45;;;12.90;99.90;;;;;;5052080;28;20031;-74
2023/02/18 08:28:42;;;;;;;1.60;1.20;;;12.90;99.90;;;;;;5051556;28;20032;-74
2023/02/18 08:31:16;;;;;;;3.22;1.65;;;12.90;99.90;;;;;;5051876;28;20428;-74
2023/02/18 08:33:42;;;;;;;1.90;1.38;;;13.00;99.90;;;;;;5051576;28;20057;-74
2023/02/18 08:36:09;;;;;;;2.13;1.38;;;13.00;99.90;;;;;;5051913;28;20400;-74
2023/02/18 08:38:35;;;;;;;2.38;1.40;;;13.00;99.90;;;;;;5051458;28;20155;-75
2023/02/18 08:41:05;;;;;;;2.60;1.23;;;13.10;99.90;;;;;;5052581;28;20116;-74
2023/02/18 08:43:31;;;;;;;2.28;1.27;;;13.10;99.90;;;;;;5051758;28;20086;-79
2023/02/18 08:45:58;;;;;;;2.72;1.30;;;13.20;99.90;;;;;;5051500;28;20501;-75
2023/02/18 08:48:24;;;;;;;2.95;1.38;;;13.30;99.90;;;;;;5051934;28;20059;-74
2023/02/18 08:50:50;;;;;;;1.35;0.95;;;13.30;99.90;;;;;;5052414;28;20032;-75
2023/02/18 08:53:16;;;;;;;2.05;1.15;;;13.40;99.90;;;;;;5053164;28;20549;-74
2023/02/18 08:55:42;;;;;;;2.10;0.93;;;13.50;99.90;;;;;;5051050;28;20119;-75
2023/02/18 08:58:08;;;;;;;2.53;1.30;;;13.60;99.90;;;;;;5051829;28;20112;-75
2023/02/18 09:00:34;;;;;;;2.92;1.30;;;13.60;99.90;;;;;;5051145;28;20174;-75
2023/02/18 09:03:00;;;;;;;1.95;1.10;;;13.60;99.90;;;;;;5053184;28;20033;-75
2023/02/18 09:05:26;;;;;;;2.50;1.02;;;13.50;99.90;;;;;;5052870;28;20029;-74
2023/02/18 09:07:52;;;;;;;1.52;0.95;;;13.50;99.90;;;;;;5051164;28;20025;-74
2023/02/18 09:10:17;;;;;;;2.78;1.00;;;13.40;99.90;;;;;;5051330;28;20385;-75
2023/02/18 09:12:43;;;;;;;1.63;1.00;;;13.50;99.90;;;;;;5051190;28;20030;-74
2023/02/18 09:15:09;;;;;;;1.27;0.75;;;13.50;99.90;;;;;;5052564;28;20029;-74
2023/02/18 09:17:34;;;;;;;1.95;1.20;;;13.50;99.90;;;;;;5051039;28;20466;-80
2023/02/18 09:20:00;;;;;;;2.80;0.98;;;13.50;99.90;;;;;;5051141;28;20033;-75
2023/02/18 09:22:25;;;;;;;2.38;1.50;;;13.60;99.90;;;;;;5051582;28;20029;-75
2023/02/18 09:24:51;;;;;;;2.97;1.30;;;13.60;99.90;;;;;;5050469;28;20079;-76
2023/02/18 09:27:17;;;;;;;2.65;1.45;;;13.70;99.90;;;;;;5050972;28;20086;-76
2023/02/18 09:29:43;;;;;;;3.08;1.52;;;13.70;99.90;;;;;;5050767;28;20082;-76
2023/02/18 09:32:10;;;;;;;4.53;1.60;;;13.70;99.90;;;;;;5055253;28;20384;-76
2023/02/18 09:34:36;;;;;;;4.60;2.15;;;13.70;99.90;;;;;;5056311;28;20025;-77
2023/02/18 09:37:02;;;;;;;2.97;1.70;;;13.70;99.90;;;;;;5057058;28;20508;-76
2023/02/18 09:39:28;;;;;;;5.07;2.15;;;13.70;99.90;;;;;;5055082;28;20082;-76
2023/02/18 09:41:56;;;;;;;2.63;1.40;;;13.70;99.90;;;;;;5056446;28;20181;-76
2023/02/18 09:44:34;;;;;;;3.05;1.70;;;13.70;99.90;;;;;;5056925;28;20474;-77
2023/02/18 09:47:20;;;;;;;5.18;2.05;;;13.60;99.90;;;;;;5054518;28;20033;-77
2023/02/18 09:49:50;;;;;;;4.43;2.20;;;13.70;99.90;;;;;;5055723;28;20474;-76
2023/02/18 09:52:28;;;;;;;2.45;1.52;;;13.70;99.90;;;;;;5054763;28;20489;-78
2023/02/18 09:54:54;;;;;;;2.70;1.38;;;13.70;99.90;;;;;;5053984;28;20032;-77
2023/02/18 09:57:42;;;;;;;4.57;2.40;;;13.80;99.90;;;;;;5054408;28;20029;-77
2023/02/18 10:00:17;;;;;;;5.95;2.30;;;13.80;99.90;;;;;;5056032;28;20036;-77
2023/02/18 10:02:56;;;;;;;3.65;1.75;;;13.80;99.90;;;;;;5054278;28;20029;-76
2023/02/18 10:05:25;;;;;;;3.67;1.90;;;13.90;99.90;;;;;;5054521;28;20028;-79
2023/02/18 10:07:55;;;;;;;3.92;1.65;;;14.10;99.90;;;;;;5056855;28;20381;-77
2023/02/18 10:10:38;;;;;;;2.70;1.40;;;14.10;99.90;;;;;;5063293;28;20029;-77
2023/02/18 10:13:06;;;;;;;3.33;1.60;;;14.10;99.90;;;;;;5069412;28;20025;-76
2023/02/18 10:15:32;;;;;;;3.13;1.20;;;14.10;99.90;;;;;;5072495;28;20059;-77
2023/02/18 10:17:59;;;;;;;3.53;1.60;;;14.10;99.90;;;;;;5068749;28;20025;-76
2023/02/18 10:20:28;;;;;;;2.38;1.40;;;14.10;99.90;;;;;;5056014;28;20029;-76
2023/02/18 10:22:58;;;;;;;2.72;1.42;;;14.10;99.90;;;;;;5055400;28;20040;-77
2023/02/18 10:25:25;;;;;;;2.90;1.38;;;14.20;99.90;;;;;;5056676;28;20025;-77
2023/02/18 10:27:52;;;;;;;2.60;1.63;;;14.20;99.90;;;;;;5069582;28;20021;-77
2023/02/18 10:30:26;;;;;;;2.55;1.65;;;14.30;99.90;;;;;;5049691;28;20036;-77
2023/02/18 10:33:18;;;;;;;3.13;1.30;;;14.20;99.90;;;;;;5069449;28;20028;-77
2023/02/18 10:35:56;;;;;;;2.20;1.33;;;14.20;99.90;;;;;;5032669;28;20051;-77
2023/02/18 10:38:54;;;;;;;2.13;1.05;;;14.20;99.90;;;;;;5055027;28;20386;-77
2023/02/18 10:42:07;;;;;;;2.63;1.52;;;14.30;99.90;;;;;;5053506;28;20378;-77
2023/02/18 10:44:45;;;;;;;3.20;1.40;;;14.40;99.90;;;;;;5050226;28;20505;-77
2023/02/18 10:47:33;;;;;;;3.50;1.40;;;14.30;99.90;;;;;;5035382;28;20053;-76
2023/02/18 10:50:01;;;;;;;2.17;1.20;;;14.30;99.90;;;;;;5053457;28;20230;-75
2023/02/18 10:52:32;;;;;;;1.58;1.20;;;14.30;99.90;;;;;;5072956;28;20479;-76
2023/02/18 10:54:59;;;;;;;2.23;1.37;;;14.30;99.90;;;;;;5066830;28;20032;-75
2023/02/18 10:57:25;;;;;;;3.67;1.38;;;14.30;99.90;;;;;;5054073;28;20735;-75
2023/02/18 11:00:13;;;;;;;2.85;1.30;;;14.20;99.90;;;;;;5068735;28;20024;-77
2023/02/18 11:02:41;;;;;;;2.55;1.48;;;14.10;99.90;;;;;;5073298;28;20031;-80
2023/02/18 11:05:23;;;;;;;2.38;1.50;;;14.10;99.90;;;;;;5064940;28;20111;-76
2023/02/18 11:07:52;;;;;;;5.22;1.70;;;14.10;99.90;;;;;;5058346;28;20018;-78
2023/02/18 11:10:24;;;;;;;4.38;1.77;;;14.20;99.90;;;;;;5053281;28;20029;-77
2023/02/18 11:12:55;;;;;;;3.97;1.48;;;14.30;99.90;;;;;;5069704;28;20100;-77
2023/02/18 11:15:23;;;;;;;2.72;1.75;;;14.20;99.90;;;;;;5059102;28;20048;-79
2023/02/18 11:17:54;;;;;;;3.60;1.75;;;14.30;99.90;;;;;;5055201;28;20456;-76
2023/02/18 11:20:34;;;;;;;2.13;1.73;;;14.30;99.90;;;;;;5058550;28;20041;-77
2023/02/18 11:23:05;;;;;;;5.38;2.20;;;14.40;99.90;;;;;;5039321;28;20040;-76
2023/02/18 11:25:34;;;;;;;2.30;1.48;;;14.40;99.90;;;;;;5060801;28;20043;-76
2023/02/18 11:28:28;;;;;;;2.10;1.70;;;14.40;99.90;;;;;;5056783;28;20555;-76
2023/02/18 11:30:57;;;;;;;2.78;1.90;;;14.50;99.90;;;;;;5043619;28;20032;-75
2023/02/18 11:33:27;;;;;;;3.38;1.80;;;14.60;99.90;;;;;;5063460;28;20032;-76
2023/02/18 11:35:56;;;;;;;2.35;1.52;;;14.80;99.90;;;;;;5071706;28;20084;-76
2023/02/18 11:38:27;;;;;;;3.15;1.70;;;14.80;99.90;;;;;;5064065;28;20116;-78
2023/02/18 11:41:06;;;;;;;3.38;1.85;;;14.70;99.90;;;;;;5060284;28;20035;-78
2023/02/18 11:43:33;;;;;;;2.42;1.60;;;14.70;99.90;;;;;;5063192;28;20063;-77
2023/02/18 11:46:11;;;;;;;2.25;1.60;;;14.70;99.90;;;;;;5051865;28;20033;-78
2023/02/18 11:48:37;;;;;;;2.50;1.70;;;14.70;99.90;;;;;;5052727;28;20120;-80
2023/02/18 11:51:03;;;;;;;7.32;3.00;;;14.70;99.90;;;;;;5062107;28;20039;-78
2023/02/18 11:53:35;;;;;;;2.78;1.90;;;14.70;99.90;;;;;;5071607;28;20043;-76
2023/02/18 11:56:04;;;;;;;2.60;1.90;;;14.70;99.90;;;;;;5061800;28;20036;-75
2023/02/18 11:58:44;;;;;;;3.10;1.85;;;14.70;99.90;;;;;;5062793;28;20520;-75
2023/02/18 12:01:22;;;;;;;2.20;1.77;;;14.60;99.90;;;;;;5046608;28;20029;-76
2023/02/18 12:04:04;;;;;;;3.28;2.10;;;14.60;99.90;;;;;;5062176;28;20090;-76
2023/02/18 12:06:54;;;;;;;2.70;1.90;;;14.60;99.90;;;;;;5063852;28;20501;-76
2023/02/18 12:09:41;;;;;;;2.65;1.65;;;14.60;99.90;;;;;;5064182;28;20026;-76
2023/02/18 12:12:17;;;;;;;5.13;1.48;;;14.50;99.90;;;;;;5067153;28;20039;-76
2023/02/18 12:14:43;;;;;;;2.33;1.75;;;14.40;99.90;;;;;;5063671;28;20421;-77
2023/02/18 12:17:20;;;;;;;2.40;1.65;;;14.40;99.90;;;;;;5060296;28;20462;-77
2023/02/18 12:20:05;;;;;;;3.28;1.75;;;14.30;99.90;;;;;;5067168;28;20052;-79
2023/02/18 12:22:46;;;;;;;2.70;1.33;;;14.40;99.90;;;;;;5063594;28;20053;-77
2023/02/18 12:25:38;;;;;;;2.00;1.60;;;14.40;99.90;;;;;;5060523;28;20477;-77
2023/02/18 12:28:35;;;;;;;3.75;1.88;;;14.30;99.90;;;;;;5072243;28;20496;-76
2023/02/18 12:31:19;;;;;;;3.38;1.88;;;14.30;99.90;;;;;;5067474;28;20036;-76
2023/02/18 12:33:53;;;;;;;2.28;1.42;;;14.20;99.90;;;;;;5064069;28;20036;-77
2023/02/18 12:36:47;;;;;;;2.72;1.65;;;14.20;99.90;;;;;;5054237;28;20048;-75
2023/02/18 12:39:35;;;;;;;3.53;1.60;;;14.20;99.90;;;;;;5059608;28;20075;-76
2023/02/18 12:42:14;;;;;;;3.67;1.60;;;14.10;99.90;;;;;;5043827;28;20474;-78
2023/02/18 12:45:17;;;;;;;3.33;1.58;;;14.10;99.90;;;;;;5049600;28;20021;-80
2023/02/18 12:48:12;;;;;;;2.90;1.45;;;14.10;99.90;;;;;;5045523;28;20514;-76
2023/02/18 12:50:53;;;;;;;2.20;1.42;;;14.10;99.90;;;;;;5050646;28;20127;-79
2023/02/18 12:53:40;;;;;;;1.70;1.20;;;14.10;99.90;;;;;;5047417;28;20064;-76
2023/02/18 12:56:45;;;;;;;2.03;1.45;;;14.10;99.90;;;;;;5056301;28;20111;-76
2023/02/18 12:59:36;;;;;;;4.38;1.95;;;14.10;99.90;;;;;;5038265;28;20039;-75
2023/02/18 13:02:35;;;;;;;2.67;1.58;;;14.10;99.90;;;;;;5055337;28;20128;-76
2023/02/18 13:05:39;;;;;;;1.67;1.25;;;14.00;99.90;;;;;;5071456;28;20024;-75
2023/02/18 13:08:23;;;;;;;1.52;1.23;;;14.00;99.90;;;;;;5057359;28;20025;-76